Penrod, Kentucky
Current Conditions -  °F | °C
As of 10:15 AM on Thursday 29 Jan 2015 (Local Time) from K2I0 Reporting Station
Overcast Overcast  
Wind Chill: 56°   Ceiling: 3700
Heat Index: 56°   Visibility: 10mi
Dew Point: 44°   Wind: 22mph
Humidity: 62%   Direction: 300°WNW
Pressure: 30.01"   Gusts: 28mph
Location:  37.11°N, 87°W
Report Text: K2I0 291615Z AUTO 30019G24KT 10SM OVC037 14/06 A3001 RMK AO2 T01350064
Loading
Personal Weather Stations






























Interactive Weather Map New forecast layout! Learn more

10-Day Weather Forecast

Advertisements
Track Severe Weather on mobile